Hauptseite
METAR-TAF:

METAR-TAF

Flughäfen :

Gloucester, England

Breite: 51-54N, Länge: 002-10W, Höhe: 29 m

Beobachtung

Neuester Wetterbericht von vor 28 Minuten, um 13:20 UTC
Wind 3 kt aus Nordwest
Temperatur 23°C
Luftfeuchtigkeit 47%
Luftdruck 1035 hPa
Sichtweite 10 km oder mehr
Leicht bewölkt in der Höhe von 4500 ft

METAR: EGBJ 271320Z 32003KT 9999 FEW045 23/11 Q1035

Zeit: 14:48 (13:48 UTC)

Prognose

Neuester Wetterbericht von vor 5 Stunden und 23 Minuten, um 08:25 UTC
Gültige Prognose vom 27 um 09 UTC bis 27 um 18 UTC
Wind 4 kt aus Nord
Sichtweite 10 km oder mehr
Aufgelockert bewölkt in der Höhe von 4500 ft

TAF: EGBJ 270825Z 2709/2718 01004KT 9999 SCT045

Wetterbeobachtungen und Prognosen von mehr als 4000 Flughäfen (METAR und TAF Bericht).

Die verfügbaren Stationen werden durch gelbe und rote Markierungen auf der Karte dargestellt.

Führen Sie die Maus auf sie, um den Namen der Station zu sehen.

Darauf klicken, um die Beobachtung von Wetterbeobachtungen und Prognosen zu sehen.

Um die Karte zu ändern : klicken Sie auf den grünen Tasten mit einem schwarzen Kreuz Zum Vergrößern, auf den grünen Button mit einem Gedankenstrich zu verkleinern, oder auf die grünen Pfeile für benachbarte Karten.


METAR-TAF: